TimeCST,TemperatureF,Dew PointF,Humidity,Sea Level PressureIn,VisibilityMPH,Wind Direction,Wind SpeedMPH,Gust SpeedMPH,PrecipitationIn,Events,Conditions,WindDirDegrees,DateUTC
12:15 AM,32.0,26.6,80,29.83,5.0,SSE,15.0,20.7,N/A,,Overcast,160,2012-12-09 06:15:00
12:35 AM,33.8,26.6,75,29.83,5.0,SSE,17.3,24.2,N/A,,Overcast,160,2012-12-09 06:35:00
12:55 AM,33.8,26.6,75,29.83,5.0,SSE,18.4,-,N/A,,Overcast,160,2012-12-09 06:55:00
1:15 AM,33.8,26.6,75,29.84,5.0,SSE,17.3,-,N/A,,Overcast,160,2012-12-09 07:15:00
1:35 AM,32.0,26.6,80,29.83,5.0,SSE,16.1,21.9,N/A,,Overcast,160,2012-12-09 07:35:00
1:55 AM,32.0,26.6,80,29.82,4.0,SSE,16.1,19.6,N/A,,Overcast,160,2012-12-09 07:55:00
2:15 AM,32.0,26.6,80,29.82,4.0,SSE,13.8,21.9,N/A,,Overcast,160,2012-12-09 08:15:00
2:35 AM,32.0,26.6,80,29.82,4.0,SSE,13.8,23.0,N/A,,Overcast,150,2012-12-09 08:35:00
2:55 AM,33.8,26.6,75,29.83,4.0,SSE,15.0,20.7,N/A,,Overcast,160,2012-12-09 08:55:00
3:15 AM,33.8,26.6,75,29.81,3.0,SSE,12.7,-,N/A,,Overcast,150,2012-12-09 09:15:00
3:35 AM,33.8,26.6,75,29.81,2.0,SSE,11.5,21.9,N/A,,Overcast,150,2012-12-09 09:35:00
3:55 AM,32.0,26.6,80,29.78,2.0,SSE,17.3,-,N/A,,Overcast,150,2012-12-09 09:55:00
4:15 AM,32.0,26.6,80,29.78,3.0,SSE,15.0,23.0,N/A,,Overcast,150,2012-12-09 10:15:00
4:35 AM,32.0,26.6,80,29.77,5.0,SSE,13.8,19.6,N/A,,Overcast,150,2012-12-09 10:35:00
4:55 AM,32.0,26.6,80,29.78,4.0,South,11.5,-,N/A,,Overcast,170,2012-12-09 10:55:00
5:15 AM,32.0,26.6,80,29.77,3.0,SSE,12.7,-,N/A,,Overcast,160,2012-12-09 11:15:00
5:35 AM,33.8,26.6,75,29.78,2.5,South,16.1,19.6,N/A,,Overcast,170,2012-12-09 11:35:00
5:55 AM,33.8,26.6,75,29.77,2.0,SSE,15.0,-,N/A,,Overcast,160,2012-12-09 11:55:00
6:15 AM,33.8,26.6,75,29.78,2.5,South,15.0,18.4,N/A,,Overcast,170,2012-12-09 12:15:00
6:35 AM,33.8,26.6,75,29.77,2.0,SSE,12.7,17.3,N/A,,Overcast,160,2012-12-09 12:35:00
6:55 AM,33.8,28.4,81,29.77,1.8,SSE,12.7,20.7,N/A,,Overcast,160,2012-12-09 12:55:00
7:15 AM,33.8,28.4,81,29.78,1.8,South,12.7,-,N/A,,Overcast,170,2012-12-09 13:15:00
7:35 AM,33.8,28.4,81,29.77,2.0,South,11.5,-,N/A,,Overcast,180,2012-12-09 13:35:00
7:55 AM,33.8,28.4,81,29.76,1.2,SSW,13.8,-,N/A,,Overcast,200,2012-12-09 13:55:00
8:15 AM,32.0,26.6,80,29.78,2.5,WSW,9.2,-,N/A,,Overcast,240,2012-12-09 14:15:00
8:35 AM,32.0,26.6,80,29.79,2.0,WSW,13.8,-,0.01,,Overcast,240,2012-12-09 14:35:00
8:55 AM,30.2,26.6,86,29.79,3.0,SW,13.8,-,0.01,,Overcast,230,2012-12-09 14:55:00
9:15 AM,30.2,24.8,80,29.78,10.0,SW,13.8,-,N/A,,Overcast,230,2012-12-09 15:15:00
9:35 AM,30.2,24.8,80,29.79,10.0,SW,16.1,-,N/A,,Overcast,220,2012-12-09 15:35:00
9:55 AM,28.4,23.0,80,29.79,9.0,SW,13.8,-,N/A,,Overcast,220,2012-12-09 15:55:00
10:15 AM,26.6,21.2,80,29.79,10.0,SW,15.0,-,N/A,,Overcast,220,2012-12-09 16:15:00
10:35 AM,26.6,19.4,74,29.79,10.0,SW,16.1,-,N/A,,Overcast,230,2012-12-09 16:35:00
10:55 AM,26.6,19.4,74,29.79,8.0,SW,16.1,-,N/A,,Overcast,220,2012-12-09 16:55:00
11:15 AM,26.6,19.4,74,29.78,8.0,WSW,13.8,-,N/A,,Overcast,240,2012-12-09 17:15:00
11:35 AM,24.8,19.4,80,29.78,6.0,WSW,15.0,-,N/A,,Overcast,240,2012-12-09 17:35:00
11:55 AM,24.8,19.4,80,29.78,9.0,WSW,9.2,-,N/A,,Overcast,240,2012-12-09 17:55:00
12:15 PM,24.8,17.6,74,29.77,10.0,WSW,11.5,-,N/A,,Overcast,240,2012-12-09 18:15:00
12:35 PM,24.8,17.6,74,29.77,9.0,WSW,12.7,-,N/A,,Overcast,240,2012-12-09 18:35:00
12:55 PM,24.8,19.4,80,29.77,9.0,WSW,10.4,-,N/A,,Overcast,250,2012-12-09 18:55:00
1:15 PM,24.8,17.6,74,29.77,7.0,NW,18.4,23.0,N/A,,Overcast,310,2012-12-09 19:15:00
1:35 PM,21.2,12.2,68,29.78,10.0,NNW,18.4,-,N/A,,Overcast,330,2012-12-09 19:35:00
1:55 PM,-9999,-9999,N/A,29.77,3.0,NNW,24.2,-,N/A,,Overcast,330,2012-12-09 19:55:00
2:15 PM,19.4,12.2,74,29.78,1.0,NNW,24.2,27.6,N/A,,Overcast,330,2012-12-09 20:15:00
2:35 PM,-9999,-9999,N/A,29.78,0.8,NNW,29.9,36.8,N/A,,Overcast,340,2012-12-09 20:35:00
2:55 PM,-9999,-9999,N/A,29.79,0.5,NNW,35.7,42.6,N/A,,Mostly Cloudy,340,2012-12-09 20:55:00
3:15 PM,-9999,-9999,N/A,29.80,0.5,NNW,31.1,40.3,N/A,,Unknown,340,2012-12-09 21:15:00
3:35 PM,-9999,-9999,N/A,29.81,0.2,NNW,32.2,48.3,N/A,,Unknown,330,2012-12-09 21:35:00
3:55 PM,-9999,-9999,N/A,29.83,0.2,NNW,35.7,43.7,N/A,,Unknown,340,2012-12-09 21:55:00
4:15 PM,-9999,-9999,N/A,29.84,0.2,NNW,34.5,42.6,N/A,,Unknown,330,2012-12-09 22:15:00
4:35 PM,-9999,-9999,N/A,29.86,0.5,NNW,31.1,41.4,N/A,,Unknown,330,2012-12-09 22:35:00
4:55 PM,-9999,-9999,N/A,29.87,0.5,NNW,33.4,42.6,N/A,,Unknown,330,2012-12-09 22:55:00
5:15 PM,-9999,-9999,N/A,29.88,0.5,NNW,34.5,39.1,N/A,,Unknown,330,2012-12-09 23:15:00
5:35 PM,-9999,-9999,N/A,29.89,0.8,NNW,33.4,40.3,N/A,,Unknown,330,2012-12-09 23:35:00
5:55 PM,-9999,-9999,N/A,29.90,1.0,NNW,32.2,40.3,N/A,,Clear,340,2012-12-09 23:55:00
6:15 PM,-9999,-9999,N/A,29.91,1.2,NNW,31.1,39.1,N/A,,Clear,330,2012-12-10 00:15:00
6:35 PM,-9999,-9999,N/A,29.92,1.0,NNW,33.4,42.6,N/A,,Clear,330,2012-12-10 00:35:00
6:55 PM,-9999,-9999,N/A,29.93,1.8,NNW,29.9,38.0,N/A,,Clear,330,2012-12-10 00:55:00
7:15 PM,-9999,-9999,N/A,29.94,1.5,NNW,28.8,39.1,N/A,,Clear,330,2012-12-10 01:15:00
7:35 PM,-9999,-9999,N/A,29.95,2.5,NNW,29.9,35.7,N/A,,Clear,330,2012-12-10 01:35:00
7:55 PM,-9999,-9999,N/A,29.95,5.0,NNW,26.5,32.2,N/A,,Clear,340,2012-12-10 01:55:00
8:15 PM,-9999,-9999,N/A,29.97,4.0,NNW,26.5,32.2,N/A,,Clear,330,2012-12-10 02:15:00
8:35 PM,10.4,-0.4,62,29.98,4.0,NNW,23.0,28.8,N/A,,Clear,330,2012-12-10 02:35:00
8:55 PM,-9999,-9999,N/A,29.98,4.0,NNW,24.2,31.1,N/A,,Clear,340,2012-12-10 02:55:00
9:15 PM,-9999,-9999,N/A,29.99,3.0,NNW,28.8,34.5,N/A,,Clear,330,2012-12-10 03:15:00
9:35 PM,-9999,-9999,N/A,29.99,4.0,NNW,27.6,32.2,N/A,,Clear,330,2012-12-10 03:35:00
9:55 PM,-9999,-9999,N/A,29.99,5.0,NNW,24.2,29.9,N/A,,Clear,340,2012-12-10 03:55:00
10:15 PM,-9999,-9999,N/A,29.99,5.0,NNW,24.2,31.1,N/A,,Clear,330,2012-12-10 04:15:00
10:35 PM,8.6,1.4,73,30.00,9.0,NNW,23.0,-,N/A,,Partly Cloudy,330,2012-12-10 04:35:00
10:55 PM,-9999,-9999,N/A,29.99,10.0,NNW,26.5,32.2,N/A,,Mostly Cloudy,330,2012-12-10 04:55:00
11:15 PM,-9999,-9999,N/A,29.99,10.0,NNW,26.5,29.9,N/A,,Mostly Cloudy,330,2012-12-10 05:15:00
11:35 PM,-9999,-9999,N/A,30.00,10.0,NNW,21.9,29.9,N/A,,Overcast,330,2012-12-10 05:35:00
11:55 PM,8.6,-0.4,67,30.00,10.0,NNW,19.6,24.2,N/A,,Overcast,330,2012-12-10 05:55:00